Decatur, IL (62523)

6:41 PM CDT on July 29, 2015 (GMT -0500)
Sandhill Dr. | | Change Station
CLOSE
Current Station
Personal Weather Station
Location: Decatur, IL
Elevation: 676 ft
Nearby Weather Stations

Elev 676 ft 39.82 °N, 88.92 °W | Updated 9 seconds ago

Clear
Clear
89.4 °F
Feels Like 105 °F
N
4.0
Wind Variable Wind from WSW
Gusts 6.9 mph

Today
High -- | Low -- °F
--% Chance of Precip.
Yesterday
High -- | Low -- °F
Precip. -- in
5:51 AM 8:12 PM
Waxing Gibbous, 97% visible
Pressure 30.01 in
Visibility 10.0 miles
Clouds Clear
Heat Index 105 °F
Dew Point 79 °F
Humidity 71%
Rainfall 0.00 in
Snow Depth Not available.
UV 2 out of 12
Pollen 1.20 out of 12
Air Quality Not available.
Flu Activity Not available.
METAR KDEC 292254Z 34014KT 10SM CLR 29/17 A3002 RMK AO2 SLP160 T02940167

More Conditions Fewer Conditions

Pressure 30.01 in
Visibility 10.0 miles
Clouds Clear
Heat Index 105 °F
Dew Point 79 °F
Humidity 71%
Rainfall 0.00 in
Snow Depth Not available.
UV 2 out of 12
Pollen 1.20 out of 12
Air Quality Not available.
Flu Activity Not available.
METAR KDEC 292254Z 34014KT 10SM CLR 29/17 A3002 RMK AO2 SLP160 T02940167

More Conditions Fewer Conditions

10-Day Weather Forecast

×

Almanac

Astronomy

Jul. 29, 2015 Rise Set
Actual Time
Civil Twilight
Nautical Twilight
Astronomical Twilight
Moon
Length of Visible Light
Length of Day
Tomorrow will be .
, % of the Moon is Illuminated

Today's Extremes

State Highs State Lows

Community

WunderPhotos

Upload Photos

1,842,196 photos uploaded!

WunderBlogs® & News

Nearby

Air Quality

  Air Quality AQ Index Pollutant
Not available.

Snow Depth

Station Depth Elevation

Earthquake Activity

City Distance Mag. Time & Date
Minimum magnitude displayed is 2.5.

Coastal Water Temperatures

Place Temperature

Stations

Nearby Weather Stations

Station Location Temp. Windchill Dew Point Humidity Wind Precip. Elev Updated Type